sensor_id;sensor_type;location;lat;lon;timestamp;temperature;humidity
61398;DHT22;47267;48.130;-2.040;2024-02-21T00:02:11;19.60;55.80
61398;DHT22;47267;48.130;-2.040;2024-02-21T00:04:36;19.60;55.80
61398;DHT22;47267;48.130;-2.040;2024-02-21T00:07:04;19.60;55.80
61398;DHT22;47267;48.130;-2.040;2024-02-21T00:09:30;19.60;55.80
61398;DHT22;47267;48.130;-2.040;2024-02-21T00:11:56;19.60;55.80
61398;DHT22;47267;48.130;-2.040;2024-02-21T00:14:21;19.60;55.80
61398;DHT22;47267;48.130;-2.040;2024-02-21T00:16:47;19.60;55.80
61398;DHT22;47267;48.130;-2.040;2024-02-21T00:19:13;19.60;55.80
61398;DHT22;47267;48.130;-2.040;2024-02-21T00:21:40;19.60;55.80
61398;DHT22;47267;48.130;-2.040;2024-02-21T00:24:06;19.60;55.80
61398;DHT22;47267;48.130;-2.040;2024-02-21T00:26:31;19.60;55.80
61398;DHT22;47267;48.130;-2.040;2024-02-21T00:28:57;19.60;55.80
61398;DHT22;47267;48.130;-2.040;2024-02-21T00:31:23;19.50;55.70
61398;DHT22;47267;48.130;-2.040;2024-02-21T00:33:49;19.60;55.80
61398;DHT22;47267;48.130;-2.040;2024-02-21T00:36:16;19.50;55.70
61398;DHT22;47267;48.130;-2.040;2024-02-21T00:38:41;19.50;55.70
61398;DHT22;47267;48.130;-2.040;2024-02-21T00:41:07;19.60;55.70
61398;DHT22;47267;48.130;-2.040;2024-02-21T00:43:32;19.50;55.70
61398;DHT22;47267;48.130;-2.040;2024-02-21T00:45:59;19.50;55.70
61398;DHT22;47267;48.130;-2.040;2024-02-21T00:48:24;19.50;55.70
61398;DHT22;47267;48.130;-2.040;2024-02-21T00:50:50;19.50;55.70
61398;DHT22;47267;48.130;-2.040;2024-02-21T00:53:16;19.50;55.70
61398;DHT22;47267;48.130;-2.040;2024-02-21T00:55:41;19.50;55.70
61398;DHT22;47267;48.130;-2.040;2024-02-21T00:58:08;19.50;55.70
61398;DHT22;47267;48.130;-2.040;2024-02-21T01:00:34;19.50;55.70
61398;DHT22;47267;48.130;-2.040;2024-02-21T01:03:00;19.50;55.70
61398;DHT22;47267;48.130;-2.040;2024-02-21T01:05:25;19.50;55.70
61398;DHT22;47267;48.130;-2.040;2024-02-21T01:07:52;19.50;55.70
61398;DHT22;47267;48.130;-2.040;2024-02-21T01:10:18;19.50;55.70
61398;DHT22;47267;48.130;-2.040;2024-02-21T01:12:44;19.50;56.30
61398;DHT22;47267;48.130;-2.040;2024-02-21T01:15:09;19.50;55.70
61398;DHT22;47267;48.130;-2.040;2024-02-21T01:17:36;19.50;55.70
61398;DHT22;47267;48.130;-2.040;2024-02-21T01:20:02;19.50;55.70
61398;DHT22;47267;48.130;-2.040;2024-02-21T01:22:28;19.50;55.70
61398;DHT22;47267;48.130;-2.040;2024-02-21T01:24:54;19.50;55.70
61398;DHT22;47267;48.130;-2.040;2024-02-21T01:27:19;19.50;55.70
61398;DHT22;47267;48.130;-2.040;2024-02-21T01:29:46;19.50;55.80
61398;DHT22;47267;48.130;-2.040;2024-02-21T01:32:13;19.50;55.70
61398;DHT22;47267;48.130;-2.040;2024-02-21T01:34:38;19.40;55.70
61398;DHT22;47267;48.130;-2.040;2024-02-21T01:37:04;19.50;55.70
61398;DHT22;47267;48.130;-2.040;2024-02-21T01:39:32;19.50;55.70
61398;DHT22;47267;48.130;-2.040;2024-02-21T01:41:58;19.40;55.70
61398;DHT22;47267;48.130;-2.040;2024-02-21T01:44:24;19.40;55.70
61398;DHT22;47267;48.130;-2.040;2024-02-21T01:46:50;19.40;55.70
61398;DHT22;47267;48.130;-2.040;2024-02-21T01:49:17;19.50;55.70
61398;DHT22;47267;48.130;-2.040;2024-02-21T01:51:43;19.40;55.70
61398;DHT22;47267;48.130;-2.040;2024-02-21T01:54:10;19.50;55.70
61398;DHT22;47267;48.130;-2.040;2024-02-21T01:56:36;19.40;55.70
61398;DHT22;47267;48.130;-2.040;2024-02-21T01:59:02;19.40;55.70
61398;DHT22;47267;48.130;-2.040;2024-02-21T02:01:29;19.50;55.70
61398;DHT22;47267;48.130;-2.040;2024-02-21T02:03:55;19.40;55.60
61398;DHT22;47267;48.130;-2.040;2024-02-21T02:06:21;19.40;55.70
61398;DHT22;47267;48.130;-2.040;2024-02-21T02:08:47;19.40;55.70
61398;DHT22;47267;48.130;-2.040;2024-02-21T02:11:16;19.40;55.70
61398;DHT22;47267;48.130;-2.040;2024-02-21T02:13:42;19.40;55.60
61398;DHT22;47267;48.130;-2.040;2024-02-21T02:16:08;19.40;55.70
61398;DHT22;47267;48.130;-2.040;2024-02-21T02:18:33;19.40;56.30
61398;DHT22;47267;48.130;-2.040;2024-02-21T02:20:59;19.40;55.60
61398;DHT22;47267;48.130;-2.040;2024-02-21T02:23:31;19.40;55.60
61398;DHT22;47267;48.130;-2.040;2024-02-21T02:25:57;19.40;55.60
61398;DHT22;47267;48.130;-2.040;2024-02-21T02:28:23;19.40;55.60
61398;DHT22;47267;48.130;-2.040;2024-02-21T02:30:49;19.40;55.60
61398;DHT22;47267;48.130;-2.040;2024-02-21T02:33:15;19.40;55.60
61398;DHT22;47267;48.130;-2.040;2024-02-21T02:35:44;19.40;55.60
61398;DHT22;47267;48.130;-2.040;2024-02-21T02:38:11;19.40;55.60
61398;DHT22;47267;48.130;-2.040;2024-02-21T02:40:40;19.40;55.60
61398;DHT22;47267;48.130;-2.040;2024-02-21T02:43:06;19.40;55.60
61398;DHT22;47267;48.130;-2.040;2024-02-21T02:45:32;19.40;55.60
61398;DHT22;47267;48.130;-2.040;2024-02-21T02:47:59;19.40;55.60
61398;DHT22;47267;48.130;-2.040;2024-02-21T02:50:25;19.40;55.60
61398;DHT22;47267;48.130;-2.040;2024-02-21T02:52:51;19.40;55.60
61398;DHT22;47267;48.130;-2.040;2024-02-21T02:55:17;19.40;55.60
61398;DHT22;47267;48.130;-2.040;2024-02-21T02:57:43;19.40;55.60
61398;DHT22;47267;48.130;-2.040;2024-02-21T03:00:10;19.40;55.60
61398;DHT22;47267;48.130;-2.040;2024-02-21T03:02:38;19.40;55.60
61398;DHT22;47267;48.130;-2.040;2024-02-21T03:05:15;19.40;56.20
61398;DHT22;47267;48.130;-2.040;2024-02-21T03:07:41;19.40;55.60
61398;DHT22;47267;48.130;-2.040;2024-02-21T03:10:08;19.40;55.60
61398;DHT22;47267;48.130;-2.040;2024-02-21T03:12:34;19.40;55.60
61398;DHT22;47267;48.130;-2.040;2024-02-21T03:14:59;19.40;55.60
61398;DHT22;47267;48.130;-2.040;2024-02-21T03:17:25;19.40;55.60
61398;DHT22;47267;48.130;-2.040;2024-02-21T03:19:54;19.40;55.60
61398;DHT22;47267;48.130;-2.040;2024-02-21T03:22:23;19.40;55.60
61398;DHT22;47267;48.130;-2.040;2024-02-21T03:24:49;19.40;55.60
61398;DHT22;47267;48.130;-2.040;2024-02-21T03:27:14;19.40;55.60
61398;DHT22;47267;48.130;-2.040;2024-02-21T03:29:40;19.30;55.60
61398;DHT22;47267;48.130;-2.040;2024-02-21T03:32:06;19.30;55.60
61398;DHT22;47267;48.130;-2.040;2024-02-21T03:34:31;19.40;55.60
61398;DHT22;47267;48.130;-2.040;2024-02-21T03:36:57;19.40;55.60
61398;DHT22;47267;48.130;-2.040;2024-02-21T03:39:23;19.40;55.60
61398;DHT22;47267;48.130;-2.040;2024-02-21T03:41:48;19.30;55.60
61398;DHT22;47267;48.130;-2.040;2024-02-21T03:44:14;19.40;55.60
61398;DHT22;47267;48.130;-2.040;2024-02-21T03:46:41;19.40;55.60
61398;DHT22;47267;48.130;-2.040;2024-02-21T03:49:07;19.30;56.20
61398;DHT22;47267;48.130;-2.040;2024-02-21T03:51:32;19.30;55.60
61398;DHT22;47267;48.130;-2.040;2024-02-21T03:53:58;19.30;55.60
61398;DHT22;47267;48.130;-2.040;2024-02-21T03:56:23;19.40;55.60
61398;DHT22;47267;48.130;-2.040;2024-02-21T03:58:50;19.30;55.60
61398;DHT22;47267;48.130;-2.040;2024-02-21T04:01:16;19.30;55.60
61398;DHT22;47267;48.130;-2.040;2024-02-21T04:03:44;19.30;55.50
61398;DHT22;47267;48.130;-2.040;2024-02-21T04:06:10;19.30;55.60
61398;DHT22;47267;48.130;-2.040;2024-02-21T04:08:35;19.30;55.60
61398;DHT22;47267;48.130;-2.040;2024-02-21T04:11:01;19.30;55.60
61398;DHT22;47267;48.130;-2.040;2024-02-21T04:13:27;19.30;55.60
61398;DHT22;47267;48.130;-2.040;2024-02-21T04:15:52;19.30;55.50
61398;DHT22;47267;48.130;-2.040;2024-02-21T04:18:18;19.30;55.60
61398;DHT22;47267;48.130;-2.040;2024-02-21T04:20:44;19.30;55.60
61398;DHT22;47267;48.130;-2.040;2024-02-21T04:23:10;19.30;55.60
61398;DHT22;47267;48.130;-2.040;2024-02-21T04:25:36;19.30;55.60
61398;DHT22;47267;48.130;-2.040;2024-02-21T04:28:02;19.30;55.60
61398;DHT22;47267;48.130;-2.040;2024-02-21T04:30:28;19.30;55.60
61398;DHT22;47267;48.130;-2.040;2024-02-21T04:32:53;19.30;55.60
61398;DHT22;47267;48.130;-2.040;2024-02-21T04:35:19;19.30;55.60
61398;DHT22;47267;48.130;-2.040;2024-02-21T04:37:45;19.30;55.60
61398;DHT22;47267;48.130;-2.040;2024-02-21T04:40:11;19.30;55.60
61398;DHT22;47267;48.130;-2.040;2024-02-21T04:42:37;19.30;55.60
61398;DHT22;47267;48.130;-2.040;2024-02-21T04:45:03;19.30;55.60
61398;DHT22;47267;48.130;-2.040;2024-02-21T04:47:28;19.30;55.60
61398;DHT22;47267;48.130;-2.040;2024-02-21T04:49:54;19.30;55.60
61398;DHT22;47267;48.130;-2.040;2024-02-21T04:52:20;19.30;55.60
61398;DHT22;47267;48.130;-2.040;2024-02-21T04:54:45;19.30;55.60
61398;DHT22;47267;48.130;-2.040;2024-02-21T04:57:11;19.30;55.60
61398;DHT22;47267;48.130;-2.040;2024-02-21T04:59:37;19.20;55.60
61398;DHT22;47267;48.130;-2.040;2024-02-21T05:02:03;19.20;55.60
61398;DHT22;47267;48.130;-2.040;2024-02-21T05:04:28;19.20;55.60
61398;DHT22;47267;48.130;-2.040;2024-02-21T05:06:54;19.20;55.60
61398;DHT22;47267;48.130;-2.040;2024-02-21T05:09:20;19.20;55.60
61398;DHT22;47267;48.130;-2.040;2024-02-21T05:11:46;19.30;55.60
61398;DHT22;47267;48.130;-2.040;2024-02-21T05:14:12;19.20;55.60
61398;DHT22;47267;48.130;-2.040;2024-02-21T05:16:38;19.20;55.60
61398;DHT22;47267;48.130;-2.040;2024-02-21T05:19:05;19.20;55.60
61398;DHT22;47267;48.130;-2.040;2024-02-21T05:21:31;19.30;55.60
61398;DHT22;47267;48.130;-2.040;2024-02-21T05:23:56;19.20;55.60
61398;DHT22;47267;48.130;-2.040;2024-02-21T05:26:26;19.30;55.70
61398;DHT22;47267;48.130;-2.040;2024-02-21T05:28:52;19.20;55.60
61398;DHT22;47267;48.130;-2.040;2024-02-21T05:31:19;19.20;55.60
61398;DHT22;47267;48.130;-2.040;2024-02-21T05:33:45;19.20;55.60
61398;DHT22;47267;48.130;-2.040;2024-02-21T05:36:11;19.20;55.60
61398;DHT22;47267;48.130;-2.040;2024-02-21T05:38:37;19.20;55.60
61398;DHT22;47267;48.130;-2.040;2024-02-21T05:41:03;19.20;55.60
61398;DHT22;47267;48.130;-2.040;2024-02-21T05:43:29;19.20;55.60
61398;DHT22;47267;48.130;-2.040;2024-02-21T05:45:55;19.20;55.60
61398;DHT22;47267;48.130;-2.040;2024-02-21T05:48:23;19.20;55.60
61398;DHT22;47267;48.130;-2.040;2024-02-21T05:50:49;19.20;55.60
61398;DHT22;47267;48.130;-2.040;2024-02-21T05:53:16;19.20;55.60
61398;DHT22;47267;48.130;-2.040;2024-02-21T05:55:41;19.20;55.60
61398;DHT22;47267;48.130;-2.040;2024-02-21T05:58:07;19.20;55.60
61398;DHT22;47267;48.130;-2.040;2024-02-21T06:00:35;19.20;55.60
61398;DHT22;47267;48.130;-2.040;2024-02-21T06:03:02;19.20;55.60
61398;DHT22;47267;48.130;-2.040;2024-02-21T06:05:28;19.20;55.60
61398;DHT22;47267;48.130;-2.040;2024-02-21T06:07:53;19.20;55.60
61398;DHT22;47267;48.130;-2.040;2024-02-21T06:10:19;19.20;55.60
61398;DHT22;47267;48.130;-2.040;2024-02-21T06:12:45;19.20;55.60
61398;DHT22;47267;48.130;-2.040;2024-02-21T06:15:10;19.20;55.60
61398;DHT22;47267;48.130;-2.040;2024-02-21T06:17:36;19.20;55.70
61398;DHT22;47267;48.130;-2.040;2024-02-21T06:20:02;19.20;55.70
61398;DHT22;47267;48.130;-2.040;2024-02-21T06:22:28;19.20;55.60
61398;DHT22;47267;48.130;-2.040;2024-02-21T06:24:55;19.20;55.70
61398;DHT22;47267;48.130;-2.040;2024-02-21T06:27:21;19.20;55.70
61398;DHT22;47267;48.130;-2.040;2024-02-21T06:29:47;19.20;55.80
61398;DHT22;47267;48.130;-2.040;2024-02-21T06:32:12;19.20;55.80
61398;DHT22;47267;48.130;-2.040;2024-02-21T06:34:38;19.20;55.90
61398;DHT22;47267;48.130;-2.040;2024-02-21T06:37:03;19.20;55.90
61398;DHT22;47267;48.130;-2.040;2024-02-21T06:39:29;19.20;56.00
61398;DHT22;47267;48.130;-2.040;2024-02-21T06:41:55;19.20;56.00
61398;DHT22;47267;48.130;-2.040;2024-02-21T06:44:21;19.20;56.20
61398;DHT22;47267;48.130;-2.040;2024-02-21T06:46:47;19.20;56.20
61398;DHT22;47267;48.130;-2.040;2024-02-21T06:49:13;19.20;56.30
61398;DHT22;47267;48.130;-2.040;2024-02-21T06:51:42;19.20;56.40
61398;DHT22;47267;48.130;-2.040;2024-02-21T06:54:08;19.20;56.50
61398;DHT22;47267;48.130;-2.040;2024-02-21T06:56:35;19.20;56.60
61398;DHT22;47267;48.130;-2.040;2024-02-21T06:59:01;19.20;56.60
61398;DHT22;47267;48.130;-2.040;2024-02-21T07:01:29;19.20;56.60
61398;DHT22;47267;48.130;-2.040;2024-02-21T07:03:55;19.20;56.90
61398;DHT22;47267;48.130;-2.040;2024-02-21T07:06:21;19.20;56.90
61398;DHT22;47267;48.130;-2.040;2024-02-21T07:08:47;19.30;56.90
61398;DHT22;47267;48.130;-2.040;2024-02-21T07:11:13;19.20;57.10
61398;DHT22;47267;48.130;-2.040;2024-02-21T07:13:38;19.20;57.10
61398;DHT22;47267;48.130;-2.040;2024-02-21T07:16:04;19.20;57.10
61398;DHT22;47267;48.130;-2.040;2024-02-21T07:18:30;19.20;57.10
61398;DHT22;47267;48.130;-2.040;2024-02-21T07:20:56;19.30;57.80
61398;DHT22;47267;48.130;-2.040;2024-02-21T07:23:22;19.20;57.20
61398;DHT22;47267;48.130;-2.040;2024-02-21T07:25:48;19.20;57.20
61398;DHT22;47267;48.130;-2.040;2024-02-21T07:28:13;19.30;57.40
61398;DHT22;47267;48.130;-2.040;2024-02-21T07:30:39;19.30;57.40
61398;DHT22;47267;48.130;-2.040;2024-02-21T07:33:05;19.20;57.30
61398;DHT22;47267;48.130;-2.040;2024-02-21T07:35:32;19.30;58.00
61398;DHT22;47267;48.130;-2.040;2024-02-21T07:37:58;19.30;57.40
61398;DHT22;47267;48.130;-2.040;2024-02-21T07:40:24;19.20;57.40
61398;DHT22;47267;48.130;-2.040;2024-02-21T07:42:50;19.30;57.50
61398;DHT22;47267;48.130;-2.040;2024-02-21T07:45:15;19.20;57.40
61398;DHT22;47267;48.130;-2.040;2024-02-21T07:47:41;19.20;57.50
61398;DHT22;47267;48.130;-2.040;2024-02-21T07:50:07;19.30;57.60
61398;DHT22;47267;48.130;-2.040;2024-02-21T07:52:33;19.20;57.50
61398;DHT22;47267;48.130;-2.040;2024-02-21T07:54:59;19.30;57.50
61398;DHT22;47267;48.130;-2.040;2024-02-21T07:57:24;19.30;57.50
61398;DHT22;47267;48.130;-2.040;2024-02-21T07:59:50;19.20;57.50
61398;DHT22;47267;48.130;-2.040;2024-02-21T08:02:16;19.30;57.60
61398;DHT22;47267;48.130;-2.040;2024-02-21T08:04:42;19.30;57.50
61398;DHT22;47267;48.130;-2.040;2024-02-21T08:07:08;19.30;57.50
61398;DHT22;47267;48.130;-2.040;2024-02-21T08:09:34;19.20;57.40
61398;DHT22;47267;48.130;-2.040;2024-02-21T08:12:00;19.20;57.50
61398;DHT22;47267;48.130;-2.040;2024-02-21T08:14:26;19.30;57.50
61398;DHT22;47267;48.130;-2.040;2024-02-21T08:16:52;19.20;57.50
61398;DHT22;47267;48.130;-2.040;2024-02-21T08:19:21;19.30;57.40
61398;DHT22;47267;48.130;-2.040;2024-02-21T08:21:48;19.30;57.50
61398;DHT22;47267;48.130;-2.040;2024-02-21T08:24:16;19.20;57.40
61398;DHT22;47267;48.130;-2.040;2024-02-21T08:26:42;19.20;57.50
61398;DHT22;47267;48.130;-2.040;2024-02-21T08:29:10;19.20;57.40
61398;DHT22;47267;48.130;-2.040;2024-02-21T08:31:36;19.30;57.50
61398;DHT22;47267;48.130;-2.040;2024-02-21T08:34:01;19.20;57.40
61398;DHT22;47267;48.130;-2.040;2024-02-21T08:36:31;19.20;57.40
61398;DHT22;47267;48.130;-2.040;2024-02-21T08:38:58;19.30;57.40
61398;DHT22;47267;48.130;-2.040;2024-02-21T08:41:24;19.20;57.40
61398;DHT22;47267;48.130;-2.040;2024-02-21T08:43:51;19.20;57.40
61398;DHT22;47267;48.130;-2.040;2024-02-21T08:46:17;19.20;57.30
61398;DHT22;47267;48.130;-2.040;2024-02-21T08:48:43;19.30;57.40
61398;DHT22;47267;48.130;-2.040;2024-02-21T08:51:12;19.20;57.40
61398;DHT22;47267;48.130;-2.040;2024-02-21T08:53:38;19.20;57.30
61398;DHT22;47267;48.130;-2.040;2024-02-21T08:56:04;19.20;57.30
61398;DHT22;47267;48.130;-2.040;2024-02-21T08:58:30;19.20;57.30
61398;DHT22;47267;48.130;-2.040;2024-02-21T09:00:56;19.20;57.30
61398;DHT22;47267;48.130;-2.040;2024-02-21T09:03:22;19.20;57.30
61398;DHT22;47267;48.130;-2.040;2024-02-21T09:05:48;19.20;57.30
61398;DHT22;47267;48.130;-2.040;2024-02-21T09:08:14;19.20;57.30
61398;DHT22;47267;48.130;-2.040;2024-02-21T09:10:40;19.20;57.30
61398;DHT22;47267;48.130;-2.040;2024-02-21T09:13:06;19.20;57.30
61398;DHT22;47267;48.130;-2.040;2024-02-21T09:15:33;19.20;57.30
61398;DHT22;47267;48.130;-2.040;2024-02-21T09:17:59;19.20;57.20
61398;DHT22;47267;48.130;-2.040;2024-02-21T09:20:25;19.20;57.20
61398;DHT22;47267;48.130;-2.040;2024-02-21T09:22:51;19.20;57.20
61398;DHT22;47267;48.130;-2.040;2024-02-21T09:25:17;19.20;57.80
61398;DHT22;47267;48.130;-2.040;2024-02-21T09:27:44;19.20;57.20
61398;DHT22;47267;48.130;-2.040;2024-02-21T09:30:10;19.20;57.20
61398;DHT22;47267;48.130;-2.040;2024-02-21T09:32:36;19.20;57.20
61398;DHT22;47267;48.130;-2.040;2024-02-21T09:35:03;19.20;57.20
61398;DHT22;47267;48.130;-2.040;2024-02-21T09:37:29;19.20;57.20
61398;DHT22;47267;48.130;-2.040;2024-02-21T09:39:54;19.20;57.20
61398;DHT22;47267;48.130;-2.040;2024-02-21T09:42:21;19.20;57.20
61398;DHT22;47267;48.130;-2.040;2024-02-21T09:44:50;19.20;57.20
61398;DHT22;47267;48.130;-2.040;2024-02-21T09:47:27;19.20;57.20
61398;DHT22;47267;48.130;-2.040;2024-02-21T09:49:57;19.20;57.20
61398;DHT22;47267;48.130;-2.040;2024-02-21T09:52:23;19.20;57.20
61398;DHT22;47267;48.130;-2.040;2024-02-21T09:54:50;19.20;57.10
61398;DHT22;47267;48.130;-2.040;2024-02-21T09:57:18;19.20;57.20
61398;DHT22;47267;48.130;-2.040;2024-02-21T09:59:44;19.20;57.10
61398;DHT22;47267;48.130;-2.040;2024-02-21T10:02:11;19.20;57.20
61398;DHT22;47267;48.130;-2.040;2024-02-21T10:04:39;19.20;57.20
61398;DHT22;47267;48.130;-2.040;2024-02-21T10:07:05;19.20;57.20
61398;DHT22;47267;48.130;-2.040;2024-02-21T10:09:31;19.20;57.10
61398;DHT22;47267;48.130;-2.040;2024-02-21T10:12:11;19.20;57.20
61398;DHT22;47267;48.130;-2.040;2024-02-21T10:14:37;19.20;57.10
61398;DHT22;47267;48.130;-2.040;2024-02-21T10:17:03;19.20;57.20
61398;DHT22;47267;48.130;-2.040;2024-02-21T10:19:34;19.20;57.20
61398;DHT22;47267;48.130;-2.040;2024-02-21T10:22:09;19.20;57.20
61398;DHT22;47267;48.130;-2.040;2024-02-21T10:24:36;19.20;57.20
61398;DHT22;47267;48.130;-2.040;2024-02-21T10:27:07;19.20;57.20
61398;DHT22;47267;48.130;-2.040;2024-02-21T10:29:40;19.20;57.20
61398;DHT22;47267;48.130;-2.040;2024-02-21T10:32:14;19.10;57.10
61398;DHT22;47267;48.130;-2.040;2024-02-21T10:34:41;19.10;57.10
61398;DHT22;47267;48.130;-2.040;2024-02-21T10:37:09;19.10;57.10
61398;DHT22;47267;48.130;-2.040;2024-02-21T10:39:41;19.10;57.10
61398;DHT22;47267;48.130;-2.040;2024-02-21T10:42:07;19.10;57.10
61398;DHT22;47267;48.130;-2.040;2024-02-21T10:44:39;19.10;57.10
61398;DHT22;47267;48.130;-2.040;2024-02-21T10:47:08;19.10;57.10
61398;DHT22;47267;48.130;-2.040;2024-02-21T10:49:38;19.10;57.20
61398;DHT22;47267;48.130;-2.040;2024-02-21T10:52:41;19.10;57.20
61398;DHT22;47267;48.130;-2.040;2024-02-21T10:55:20;19.10;57.10
61398;DHT22;47267;48.130;-2.040;2024-02-21T10:57:47;19.10;57.10
61398;DHT22;47267;48.130;-2.040;2024-02-21T11:00:15;19.10;57.10
61398;DHT22;47267;48.130;-2.040;2024-02-21T11:02:43;19.10;57.20
61398;DHT22;47267;48.130;-2.040;2024-02-21T11:05:09;19.10;57.20
61398;DHT22;47267;48.130;-2.040;2024-02-21T11:07:37;19.10;57.10
61398;DHT22;47267;48.130;-2.040;2024-02-21T11:10:03;19.10;57.10
61398;DHT22;47267;48.130;-2.040;2024-02-21T11:12:32;19.20;57.20
61398;DHT22;47267;48.130;-2.040;2024-02-21T11:15:07;19.10;57.10
61398;DHT22;47267;48.130;-2.040;2024-02-21T11:17:33;19.10;57.10
61398;DHT22;47267;48.130;-2.040;2024-02-21T11:20:10;19.10;57.70
61398;DHT22;47267;48.130;-2.040;2024-02-21T11:22:44;19.10;57.10
61398;DHT22;47267;48.130;-2.040;2024-02-21T11:25:10;19.10;57.20
61398;DHT22;47267;48.130;-2.040;2024-02-21T11:27:37;19.10;57.10
61398;DHT22;47267;48.130;-2.040;2024-02-21T11:30:05;19.10;57.10
61398;DHT22;47267;48.130;-2.040;2024-02-21T11:32:31;19.10;57.20
61398;DHT22;47267;48.130;-2.040;2024-02-21T11:35:00;19.10;57.10
61398;DHT22;47267;48.130;-2.040;2024-02-21T11:37:33;19.10;57.10
61398;DHT22;47267;48.130;-2.040;2024-02-21T11:40:00;19.10;57.10
61398;DHT22;47267;48.130;-2.040;2024-02-21T11:42:29;19.10;57.10
61398;DHT22;47267;48.130;-2.040;2024-02-21T11:44:56;19.10;57.10
61398;DHT22;47267;48.130;-2.040;2024-02-21T11:47:22;19.10;57.20
61398;DHT22;47267;48.130;-2.040;2024-02-21T11:49:48;19.10;57.10
61398;DHT22;47267;48.130;-2.040;2024-02-21T11:52:24;19.10;57.10
61398;DHT22;47267;48.130;-2.040;2024-02-21T11:54:51;19.10;57.10
61398;DHT22;47267;48.130;-2.040;2024-02-21T11:57:18;19.10;57.10
61398;DHT22;47267;48.130;-2.040;2024-02-21T11:59:47;19.10;57.10
61398;DHT22;47267;48.130;-2.040;2024-02-21T12:02:14;19.10;57.10
61398;DHT22;47267;48.130;-2.040;2024-02-21T12:04:39;19.10;57.10
61398;DHT22;47267;48.130;-2.040;2024-02-21T12:07:05;19.10;57.10
61398;DHT22;47267;48.130;-2.040;2024-02-21T12:09:31;19.10;57.10
61398;DHT22;47267;48.130;-2.040;2024-02-21T12:14:29;19.10;57.00
61398;DHT22;47267;48.130;-2.040;2024-02-21T12:16:56;19.10;57.10
61398;DHT22;47267;48.130;-2.040;2024-02-21T12:19:21;19.10;57.00
61398;DHT22;47267;48.130;-2.040;2024-02-21T12:21:48;19.10;57.00
61398;DHT22;47267;48.130;-2.040;2024-02-21T12:24:26;19.10;57.00
61398;DHT22;47267;48.130;-2.040;2024-02-21T12:26:52;19.10;57.00
61398;DHT22;47267;48.130;-2.040;2024-02-21T12:29:21;19.10;57.00
61398;DHT22;47267;48.130;-2.040;2024-02-21T12:31:47;19.10;57.00
61398;DHT22;47267;48.130;-2.040;2024-02-21T12:34:15;19.10;56.90
61398;DHT22;47267;48.130;-2.040;2024-02-21T12:36:42;19.10;57.00
61398;DHT22;47267;48.130;-2.040;2024-02-21T12:39:09;19.10;56.90
61398;DHT22;47267;48.130;-2.040;2024-02-21T12:41:35;19.10;56.90
61398;DHT22;47267;48.130;-2.040;2024-02-21T12:44:10;19.10;56.90
61398;DHT22;47267;48.130;-2.040;2024-02-21T12:46:37;19.10;57.50
61398;DHT22;47267;48.130;-2.040;2024-02-21T12:49:04;19.10;56.90
61398;DHT22;47267;48.130;-2.040;2024-02-21T12:51:32;19.00;56.80
61398;DHT22;47267;48.130;-2.040;2024-02-21T12:53:58;19.10;56.90
61398;DHT22;47267;48.130;-2.040;2024-02-21T12:56:24;19.00;56.80
61398;DHT22;47267;48.130;-2.040;2024-02-21T12:58:52;19.00;56.80
61398;DHT22;47267;48.130;-2.040;2024-02-21T13:01:18;19.00;56.80
61398;DHT22;47267;48.130;-2.040;2024-02-21T13:03:44;19.00;56.80
61398;DHT22;47267;48.130;-2.040;2024-02-21T13:06:12;19.10;56.90
61398;DHT22;47267;48.130;-2.040;2024-02-21T13:08:37;19.00;56.80
61398;DHT22;47267;48.130;-2.040;2024-02-21T13:11:04;19.00;56.80
61398;DHT22;47267;48.130;-2.040;2024-02-21T13:13:30;19.00;56.80
61398;DHT22;47267;48.130;-2.040;2024-02-21T13:15:57;19.00;56.80
61398;DHT22;47267;48.130;-2.040;2024-02-21T13:18:23;19.00;56.80
61398;DHT22;47267;48.130;-2.040;2024-02-21T13:20:49;19.10;56.90
61398;DHT22;47267;48.130;-2.040;2024-02-21T13:23:14;19.00;56.80
61398;DHT22;47267;48.130;-2.040;2024-02-21T13:25:40;19.00;56.80
61398;DHT22;47267;48.130;-2.040;2024-02-21T13:28:05;19.00;56.80
61398;DHT22;47267;48.130;-2.040;2024-02-21T13:30:32;19.00;56.80
61398;DHT22;47267;48.130;-2.040;2024-02-21T13:32:58;19.00;56.80
61398;DHT22;47267;48.130;-2.040;2024-02-21T13:35:24;19.00;56.80
61398;DHT22;47267;48.130;-2.040;2024-02-21T13:37:49;19.00;56.80
61398;DHT22;47267;48.130;-2.040;2024-02-21T13:40:16;19.00;56.80
61398;DHT22;47267;48.130;-2.040;2024-02-21T13:42:42;19.00;56.80
61398;DHT22;47267;48.130;-2.040;2024-02-21T13:45:09;19.00;56.80
61398;DHT22;47267;48.130;-2.040;2024-02-21T13:47:34;19.00;56.80
61398;DHT22;47267;48.130;-2.040;2024-02-21T13:50:02;19.00;56.80
61398;DHT22;47267;48.130;-2.040;2024-02-21T13:52:30;19.00;56.80
61398;DHT22;47267;48.130;-2.040;2024-02-21T13:54:56;19.00;56.90
61398;DHT22;47267;48.130;-2.040;2024-02-21T13:57:22;19.00;56.90
61398;DHT22;47267;48.130;-2.040;2024-02-21T13:59:48;19.00;56.90
61398;DHT22;47267;48.130;-2.040;2024-02-21T14:02:14;19.00;57.00
61398;DHT22;47267;48.130;-2.040;2024-02-21T14:04:39;19.10;57.00
61398;DHT22;47267;48.130;-2.040;2024-02-21T14:07:05;19.20;56.80
61398;DHT22;47267;48.130;-2.040;2024-02-21T14:09:31;19.30;56.50
61398;DHT22;47267;48.130;-2.040;2024-02-21T14:11:58;19.40;56.30
61398;DHT22;47267;48.130;-2.040;2024-02-21T14:14:24;19.40;56.10
61398;DHT22;47267;48.130;-2.040;2024-02-21T14:16:49;19.50;56.20
61398;DHT22;47267;48.130;-2.040;2024-02-21T14:19:15;19.40;56.30
61398;DHT22;47267;48.130;-2.040;2024-02-21T14:21:41;19.30;56.50
61398;DHT22;47267;48.130;-2.040;2024-02-21T14:24:07;19.30;56.50
61398;DHT22;47267;48.130;-2.040;2024-02-21T14:26:33;19.30;56.60
61398;DHT22;47267;48.130;-2.040;2024-02-21T14:28:59;19.30;56.60
61398;DHT22;47267;48.130;-2.040;2024-02-21T14:31:25;19.30;56.70
61398;DHT22;47267;48.130;-2.040;2024-02-21T14:33:52;19.30;56.70
61398;DHT22;47267;48.130;-2.040;2024-02-21T14:36:17;19.40;56.70
61398;DHT22;47267;48.130;-2.040;2024-02-21T14:38:43;19.40;56.70
61398;DHT22;47267;48.130;-2.040;2024-02-21T14:41:10;19.40;56.60
61398;DHT22;47267;48.130;-2.040;2024-02-21T14:43:38;19.50;56.70
61398;DHT22;47267;48.130;-2.040;2024-02-21T14:46:04;19.40;56.60
61398;DHT22;47267;48.130;-2.040;2024-02-21T14:48:31;19.50;56.50
61398;DHT22;47267;48.130;-2.040;2024-02-21T14:50:58;19.50;56.50
61398;DHT22;47267;48.130;-2.040;2024-02-21T14:53:24;19.50;56.60
61398;DHT22;47267;48.130;-2.040;2024-02-21T14:55:50;19.50;56.60
61398;DHT22;47267;48.130;-2.040;2024-02-21T14:58:18;19.50;56.60
61398;DHT22;47267;48.130;-2.040;2024-02-21T15:00:45;19.50;56.60
61398;DHT22;47267;48.130;-2.040;2024-02-21T15:03:12;19.50;56.60
61398;DHT22;47267;48.130;-2.040;2024-02-21T15:05:41;19.50;56.60
61398;DHT22;47267;48.130;-2.040;2024-02-21T15:08:07;19.50;56.60
61398;DHT22;47267;48.130;-2.040;2024-02-21T15:10:36;19.60;56.80
61398;DHT22;47267;48.130;-2.040;2024-02-21T15:13:02;19.60;56.80
61398;DHT22;47267;48.130;-2.040;2024-02-21T15:15:28;19.60;56.70